createdAt,value
2018-02-18T00:00:29.451Z,0.20
2018-02-18T00:02:57.039Z,0.20
2018-02-18T00:05:25.386Z,0.20
2018-02-18T00:07:52.971Z,0.20
2018-02-18T00:10:20.564Z,0.20
2018-02-18T00:12:48.174Z,0.20
2018-02-18T00:15:15.777Z,0.20
2018-02-18T00:17:44.127Z,0.20
2018-02-18T00:20:12.471Z,0.20
2018-02-18T00:22:40.071Z,0.20
2018-02-18T00:25:07.654Z,0.20
2018-02-18T00:27:35.244Z,0.20
2018-02-18T00:30:03.626Z,0.20
2018-02-18T00:32:31.972Z,0.20
2018-02-18T00:34:59.550Z,0.20
2018-02-18T00:37:27.135Z,0.30
2018-02-18T00:39:55.498Z,0.30
2018-02-18T00:42:23.103Z,0.30
2018-02-18T00:44:50.681Z,0.30
2018-02-18T00:47:18.279Z,0.30
2018-02-18T00:49:45.878Z,0.30
2018-02-18T00:52:14.246Z,0.20
2018-02-18T00:54:42.595Z,0.30
2018-02-18T00:57:10.949Z,0.30
2018-02-18T00:59:38.537Z,0.30
2018-02-18T01:02:06.123Z,0.30
2018-02-18T01:04:33.702Z,0.30
2018-02-18T01:07:01.287Z,0.30
2018-02-18T01:09:28.876Z,0.30
2018-02-18T01:11:56.467Z,0.30
2018-02-18T01:14:24.107Z,0.30
2018-02-18T01:16:51.687Z,0.30
2018-02-18T01:19:19.280Z,0.30
2018-02-18T01:21:46.863Z,0.30
2018-02-18T01:24:15.211Z,0.30
2018-02-18T01:26:42.791Z,0.30
2018-02-18T01:29:10.379Z,0.30
2018-02-18T01:31:38.736Z,0.30
2018-02-18T01:34:06.322Z,0.30
2018-02-18T01:36:34.671Z,0.30
2018-02-18T01:39:02.258Z,0.30
2018-02-18T01:41:29.846Z,0.30
2018-02-18T01:43:58.200Z,0.30
2018-02-18T01:46:25.791Z,0.30
2018-02-18T01:48:54.134Z,0.30
2018-02-18T01:51:21.716Z,0.30
2018-02-18T01:53:49.304Z,0.30
2018-02-18T01:56:16.893Z,0.30
2018-02-18T01:58:44.475Z,0.30
2018-02-18T02:01:12.059Z,0.30
2018-02-18T02:03:39.658Z,0.20
2018-02-18T02:06:08.003Z,0.20
2018-02-18T02:08:35.595Z,0.20
2018-02-18T02:11:03.946Z,0.20
2018-02-18T02:13:31.526Z,0.20
2018-02-18T02:15:59.122Z,0.20
2018-02-18T02:18:27.466Z,0.20
2018-02-18T02:20:55.050Z,0.20
2018-02-18T02:23:23.443Z,0.10
2018-02-18T02:25:51.788Z,0.10
2018-02-18T02:28:19.379Z,0.10
2018-02-18T02:30:47.003Z,0.10
2018-02-18T02:33:14.584Z,0.10
2018-02-18T02:35:42.175Z,0.10
2018-02-18T02:38:10.540Z,0.10
2018-02-18T02:40:38.127Z,0.10
2018-02-18T02:43:06.471Z,0.10
2018-02-18T02:45:34.055Z,0.10
2018-02-18T02:48:01.643Z,0.10
2018-02-18T02:50:29.996Z,0.10
2018-02-18T02:52:57.582Z,0.10
2018-02-18T02:55:25.931Z,0.10
2018-02-18T02:57:53.523Z,0.10
2018-02-18T03:00:21.147Z,0.10
2018-02-18T03:02:48.731Z,0.10
2018-02-18T03:05:16.318Z,0.10
2018-02-18T03:07:43.903Z,0.10
2018-02-18T03:10:12.247Z,0.10
2018-02-18T03:12:39.831Z,0.10
2018-02-18T03:15:07.411Z,0.10
2018-02-18T03:17:35.754Z,0.10
2018-02-18T03:20:03.359Z,0.10
2018-02-18T03:22:31.711Z,0.10
2018-02-18T03:24:59.298Z,0.10
2018-02-18T03:27:27.642Z,0.10
2018-02-18T03:29:55.226Z,0.10
2018-02-18T03:32:22.814Z,0.00
2018-02-18T03:34:51.169Z,0.00
2018-02-18T03:37:18.752Z,0.00
2018-02-18T03:39:47.098Z,0.00
2018-02-18T03:42:14.675Z,0.00
2018-02-18T03:44:42.313Z,0.00
2018-02-18T03:47:09.899Z,0.00
2018-02-18T03:49:37.483Z,-0.10
2018-02-18T03:52:05.091Z,-0.10
2018-02-18T03:54:32.687Z,-0.10
2018-02-18T03:57:00.267Z,-0.10
2018-02-18T03:59:27.856Z,-0.10
2018-02-18T04:01:56.223Z,-0.10
2018-02-18T04:04:23.810Z,-0.10
2018-02-18T04:06:52.159Z,-0.20
2018-02-18T04:09:19.746Z,-0.20
2018-02-18T04:11:48.094Z,-0.10
2018-02-18T04:14:15.730Z,-0.20
2018-02-18T04:16:43.311Z,-0.10
2018-02-18T04:19:10.892Z,-0.20
2018-02-18T04:21:38.480Z,-0.20
2018-02-18T04:24:06.073Z,-0.20
2018-02-18T04:26:33.679Z,-0.20
2018-02-18T04:29:01.258Z,-0.20
2018-02-18T04:31:28.838Z,-0.20
2018-02-18T04:33:56.419Z,-0.20
2018-02-18T04:36:24.774Z,-0.20
2018-02-18T04:38:52.359Z,-0.20
2018-02-18T04:41:20.706Z,-0.20
2018-02-18T04:43:48.291Z,-0.20
2018-02-18T04:46:15.878Z,-0.20
2018-02-18T04:48:44.230Z,-0.20
2018-02-18T04:51:11.822Z,-0.30
2018-02-18T04:53:40.174Z,-0.30
2018-02-18T04:56:08.654Z,-0.30
2018-02-18T04:58:36.236Z,-0.30
2018-02-18T05:01:03.823Z,-0.30
2018-02-18T05:03:32.171Z,-0.30
2018-02-18T05:05:59.751Z,-0.30
2018-02-18T05:08:27.390Z,-0.30
2018-02-18T05:10:54.968Z,-0.30
2018-02-18T05:13:22.559Z,-0.30
2018-02-18T05:15:50.906Z,-0.30
2018-02-18T05:18:18.495Z,-0.30
2018-02-18T05:20:46.087Z,-0.30
2018-02-18T05:23:13.676Z,-0.40
2018-02-18T05:25:41.265Z,-0.30
2018-02-18T05:28:08.850Z,-0.30
2018-02-18T05:30:36.439Z,-0.30
2018-02-18T05:33:04.787Z,-0.30
2018-02-18T05:35:32.375Z,-0.40
2018-02-18T05:38:00.726Z,-0.40
2018-02-18T05:40:28.323Z,-0.40
2018-02-18T05:42:56.678Z,-0.40
2018-02-18T05:45:24.273Z,-0.40
2018-02-18T05:47:52.617Z,-0.40
2018-02-18T05:50:20.199Z,-0.40
2018-02-18T05:52:47.779Z,-0.40
2018-02-18T05:55:15.359Z,-0.40
2018-02-18T05:57:42.949Z,-0.40
2018-02-18T06:00:10.543Z,-0.40
2018-02-18T06:02:38.132Z,-0.40
2018-02-18T06:05:05.719Z,-0.40
2018-02-18T06:07:33.346Z,-0.40
2018-02-18T06:10:00.939Z,-0.40
2018-02-18T06:12:29.892Z,-0.40
2018-02-18T06:14:57.474Z,-0.40
2018-02-18T06:17:25.070Z,-0.40
2018-02-18T06:19:53.422Z,-0.40
2018-02-18T06:22:21.006Z,-0.40
2018-02-18T06:24:49.363Z,-0.40
2018-02-18T06:27:17.008Z,-0.40
2018-02-18T06:29:44.590Z,-0.40
2018-02-18T06:32:12.179Z,-0.40
2018-02-18T06:34:40.530Z,-0.40
2018-02-18T06:37:08.119Z,-0.40
2018-02-18T06:39:35.702Z,-0.30
2018-02-18T06:42:04.103Z,-0.30
2018-02-18T06:44:31.695Z,-0.30
2018-02-18T06:46:59.282Z,-0.30
2018-02-18T06:49:26.910Z,-0.30
2018-02-18T06:51:54.499Z,-0.30
2018-02-18T06:54:22.082Z,-0.30
2018-02-18T06:56:49.695Z,-0.30
2018-02-18T06:59:17.285Z,-0.30
2018-02-18T07:01:44.980Z,-0.30
2018-02-18T07:04:12.573Z,-0.30
2018-02-18T07:06:40.973Z,-0.20
2018-02-18T07:09:08.923Z,-0.20
2018-02-18T07:11:36.539Z,-0.20
2018-02-18T07:14:04.171Z,-0.20
2018-02-18T07:16:31.762Z,-0.10
2018-02-18T07:18:59.386Z,-0.20
2018-02-18T07:21:27.733Z,-0.20
2018-02-18T07:23:55.319Z,-0.20
2018-02-18T07:26:22.908Z,-0.10
2018-02-18T07:28:50.502Z,-0.10
2018-02-18T07:31:18.092Z,-0.10
2018-02-18T07:33:45.670Z,-0.10
2018-02-18T07:36:13.254Z,-0.10
2018-02-18T07:38:41.660Z,0.00
2018-02-18T07:41:09.242Z,0.00
2018-02-18T07:43:36.827Z,0.00
2018-02-18T07:46:04.412Z,0.00
2018-02-18T07:48:31.994Z,0.00
2018-02-18T07:51:00.391Z,0.00
2018-02-18T07:53:27.991Z,0.00
2018-02-18T07:55:55.575Z,0.00
2018-02-18T07:58:23.963Z,0.00
2018-02-18T08:00:51.551Z,0.00
2018-02-18T08:03:19.899Z,0.10
2018-02-18T08:05:47.487Z,0.10
2018-02-18T08:08:15.075Z,0.10
2018-02-18T08:10:43.422Z,0.00
2018-02-18T08:13:11.056Z,0.00
2018-02-18T08:15:38.643Z,0.10
2018-02-18T08:18:06.222Z,0.10
2018-02-18T08:20:33.811Z,0.10
2018-02-18T08:23:02.172Z,0.10
2018-02-18T08:25:29.762Z,0.10
2018-02-18T08:27:58.156Z,0.20
2018-02-18T08:30:25.734Z,0.10
2018-02-18T08:32:53.318Z,0.20
2018-02-18T08:35:20.899Z,0.30
2018-02-18T08:37:48.526Z,0.30
2018-02-18T08:40:16.112Z,0.40
2018-02-18T08:42:43.686Z,0.50
2018-02-18T08:45:12.034Z,0.50
2018-02-18T08:47:39.623Z,0.50
2018-02-18T08:50:07.219Z,0.50
2018-02-18T08:52:34.807Z,0.60
2018-02-18T08:55:03.158Z,0.60
2018-02-18T08:57:30.739Z,0.60
2018-02-18T08:59:58.340Z,0.60
2018-02-18T09:02:25.923Z,0.60
2018-02-18T09:04:53.511Z,0.60
2018-02-18T09:07:21.096Z,0.70
2018-02-18T09:09:48.675Z,0.70
2018-02-18T09:12:17.019Z,0.80
2018-02-18T09:14:44.604Z,0.70
2018-02-18T09:17:12.182Z,0.80
2018-02-18T09:19:40.532Z,1.10
2018-02-18T09:22:08.165Z,1.00
2018-02-18T09:24:35.792Z,1.10
2018-02-18T09:27:04.147Z,1.10
2018-02-18T09:29:31.727Z,1.10
2018-02-18T09:31:59.321Z,1.10
2018-02-18T09:34:27.673Z,1.20
2018-02-18T09:36:56.034Z,1.10
2018-02-18T09:39:23.622Z,1.10
2018-02-18T09:41:51.206Z,1.00
2018-02-18T09:44:19.563Z,1.00
2018-02-18T09:46:47.147Z,1.00
2018-02-18T09:49:15.496Z,1.00
2018-02-18T09:51:43.077Z,1.00
2018-02-18T09:54:10.654Z,1.10
2018-02-18T09:56:39.008Z,1.10
2018-02-18T09:59:06.593Z,1.10
2018-02-18T10:01:34.175Z,1.00
2018-02-18T10:04:02.523Z,0.90
2018-02-18T10:06:30.098Z,0.90
2018-02-18T10:08:57.739Z,0.90
2018-02-18T10:11:25.326Z,0.90
2018-02-18T10:13:52.904Z,1.00
2018-02-18T10:16:20.489Z,1.00
2018-02-18T10:18:48.830Z,1.00
2018-02-18T10:21:16.416Z,1.00
2018-02-18T10:23:44.003Z,1.00
2018-02-18T10:26:11.583Z,0.90
2018-02-18T10:28:39.170Z,0.90
2018-02-18T10:31:06.756Z,0.90
2018-02-18T10:33:34.343Z,0.90
2018-02-18T10:36:01.925Z,0.90
2018-02-18T10:38:30.727Z,1.00
2018-02-18T10:40:58.365Z,1.00
2018-02-18T10:43:26.711Z,1.10
2018-02-18T10:45:54.295Z,1.10
2018-02-18T10:48:21.875Z,1.00
2018-02-18T10:50:50.228Z,1.20
2018-02-18T10:53:17.806Z,1.20
2018-02-18T10:55:46.192Z,1.30
2018-02-18T10:58:13.781Z,1.40
2018-02-18T11:00:42.126Z,1.20
2018-02-18T11:03:09.702Z,1.20
2018-02-18T11:05:37.282Z,1.20
2018-02-18T11:08:05.630Z,1.20
2018-02-18T11:10:33.210Z,1.20
2018-02-18T11:13:00.792Z,1.40
2018-02-18T11:15:29.147Z,1.40
2018-02-18T11:17:57.498Z,1.40
2018-02-18T11:20:26.019Z,1.40
2018-02-18T11:22:53.598Z,1.50
2018-02-18T11:25:21.182Z,1.40
2018-02-18T11:27:49.528Z,1.50
2018-02-18T11:30:17.116Z,1.50
2018-02-18T11:32:44.699Z,1.50
2018-02-18T11:35:13.044Z,1.60
2018-02-18T11:37:40.632Z,1.60
2018-02-18T11:40:08.983Z,1.50
2018-02-18T11:42:36.563Z,1.40
2018-02-18T11:45:04.148Z,1.30
2018-02-18T11:47:32.491Z,1.40
2018-02-18T11:50:00.071Z,1.40
2018-02-18T11:52:27.650Z,1.50
2018-02-18T11:54:55.231Z,1.60
2018-02-18T11:57:23.576Z,1.40
2018-02-18T11:59:51.173Z,1.40
2018-02-18T12:02:19.519Z,1.40
2018-02-18T12:04:47.125Z,1.40
2018-02-18T12:07:15.478Z,1.50
2018-02-18T12:09:43.054Z,1.50
2018-02-18T12:12:10.635Z,1.60
2018-02-18T12:14:38.991Z,1.50
2018-02-18T12:17:06.592Z,1.50
2018-02-18T12:19:34.203Z,1.60
2018-02-18T12:22:01.784Z,1.60
2018-02-18T12:24:29.444Z,1.40
2018-02-18T12:26:57.068Z,1.30
2018-02-18T12:29:24.653Z,1.10
2018-02-18T12:31:52.971Z,1.30
2018-02-18T12:34:20.567Z,1.40
2018-02-18T12:36:48.149Z,1.40
2018-02-18T12:39:15.737Z,1.50
2018-02-18T12:41:43.320Z,1.60
2018-02-18T12:44:10.906Z,1.70
2018-02-18T12:46:39.251Z,1.80
2018-02-18T12:49:06.879Z,1.70
2018-02-18T12:51:34.484Z,1.60
2018-02-18T12:54:02.080Z,1.70
2018-02-18T12:56:30.427Z,1.70
2018-02-18T12:58:58.046Z,1.70
2018-02-18T13:01:25.624Z,1.80
2018-02-18T13:03:53.220Z,1.90
2018-02-18T13:06:20.795Z,1.80
2018-02-18T13:08:48.377Z,1.90
2018-02-18T13:11:15.960Z,1.90
2018-02-18T13:13:44.302Z,1.80
2018-02-18T13:16:11.882Z,1.70
2018-02-18T13:18:39.475Z,1.80
2018-02-18T13:21:07.082Z,1.80
2018-02-18T13:23:34.658Z,1.80
2018-02-18T13:26:02.283Z,1.60
2018-02-18T13:28:29.864Z,1.50
2018-02-18T13:30:57.455Z,1.60
2018-02-18T13:33:25.038Z,1.60
2018-02-18T13:35:52.615Z,1.70
2018-02-18T13:38:20.982Z,1.50
2018-02-18T13:40:48.607Z,1.50
2018-02-18T13:43:16.190Z,1.50
2018-02-18T13:45:43.772Z,1.50
2018-02-18T13:48:11.350Z,1.60
2018-02-18T13:50:39.962Z,1.60
2018-02-18T13:53:08.354Z,1.60
2018-02-18T13:55:36.726Z,1.60
2018-02-18T13:58:05.070Z,1.60
2018-02-18T14:00:32.655Z,1.70
2018-02-18T14:03:00.997Z,1.70
2018-02-18T14:05:28.583Z,1.70
2018-02-18T14:07:56.163Z,1.60
2018-02-18T14:10:23.747Z,1.60
2018-02-18T14:12:52.099Z,1.50
2018-02-18T14:15:19.683Z,1.50
2018-02-18T14:17:48.061Z,1.50
2018-02-18T14:20:16.406Z,1.50
2018-02-18T14:22:43.987Z,1.50
2018-02-18T14:25:11.587Z,1.50
2018-02-18T14:27:39.930Z,1.40
2018-02-18T14:30:07.511Z,1.40
2018-02-18T14:32:35.098Z,1.40
2018-02-18T14:35:03.519Z,1.20
2018-02-18T14:37:31.099Z,1.20
2018-02-18T14:39:58.679Z,1.20
2018-02-18T14:42:38.091Z,1.20
2018-02-18T14:45:17.606Z,1.10
2018-02-18T14:47:56.974Z,1.20
2018-02-18T14:53:37.699Z,0.90
2018-02-18T14:59:05.031Z,0.90
2018-02-18T15:01:32.611Z,0.80
2018-02-18T15:04:00.953Z,0.80
2018-02-18T15:06:28.527Z,0.80
2018-02-18T15:08:56.103Z,0.80
2018-02-18T15:11:23.680Z,0.70
2018-02-18T15:13:52.023Z,0.70
2018-02-18T15:16:19.598Z,0.70
2018-02-18T15:18:47.177Z,0.70
2018-02-18T15:21:14.756Z,0.70
2018-02-18T15:23:43.099Z,0.70
2018-02-18T15:26:10.676Z,0.60
2018-02-18T15:28:38.246Z,0.60
2018-02-18T15:31:05.825Z,0.70
2018-02-18T15:33:34.166Z,0.70
2018-02-18T15:36:01.743Z,0.70
2018-02-18T15:38:29.323Z,0.70
2018-02-18T15:40:56.898Z,0.70
2018-02-18T15:43:25.247Z,0.70
2018-02-18T15:45:52.865Z,0.70
2018-02-18T15:48:20.442Z,0.70
2018-02-18T15:50:48.019Z,0.60
2018-02-18T15:53:15.595Z,0.60
2018-02-18T15:55:43.170Z,0.50
2018-02-18T15:58:10.743Z,0.50
2018-02-18T16:00:38.315Z,0.50
2018-02-18T16:03:05.934Z,0.50
2018-02-18T16:05:33.515Z,0.50
2018-02-18T16:08:01.100Z,0.40
2018-02-18T16:10:28.678Z,0.40
2018-02-18T16:12:56.258Z,0.40
2018-02-18T16:15:24.606Z,0.40
2018-02-18T16:17:52.189Z,0.40
2018-02-18T16:20:19.782Z,0.40
2018-02-18T16:22:48.134Z,0.40
2018-02-18T16:25:15.859Z,0.40
2018-02-18T16:27:43.443Z,0.40
2018-02-18T16:30:11.027Z,0.40
2018-02-18T16:32:38.613Z,0.40
2018-02-18T16:35:06.974Z,0.40
2018-02-18T16:37:34.555Z,0.40
2018-02-18T16:40:02.132Z,0.40
2018-02-18T16:42:30.480Z,0.40
2018-02-18T16:44:58.059Z,0.30
2018-02-18T16:47:25.682Z,0.30
2018-02-18T16:50:00.120Z,0.30
2018-02-18T16:52:27.703Z,0.30
2018-02-18T16:54:55.279Z,0.20
2018-02-18T16:57:22.859Z,0.20
2018-02-18T16:59:51.218Z,0.20
2018-02-18T17:02:18.795Z,0.20
2018-02-18T17:04:47.198Z,0.20
2018-02-18T17:07:14.792Z,0.20
2018-02-18T17:09:42.955Z,0.20
2018-02-18T17:12:10.535Z,0.20
2018-02-18T17:14:38.114Z,0.10
2018-02-18T17:17:05.682Z,0.00
2018-02-18T17:22:08.078Z,-0.20
2018-02-18T17:24:35.663Z,-0.30
2018-02-18T17:27:03.286Z,-0.40
2018-02-18T17:29:30.871Z,-0.40
2018-02-18T17:31:58.455Z,-0.50
2018-02-18T17:34:26.078Z,-0.60
2018-02-18T17:36:53.663Z,-0.70
2018-02-18T17:39:21.241Z,-0.80
2018-02-18T17:41:48.818Z,-1.00
2018-02-18T17:44:16.439Z,-1.00
2018-02-18T17:46:44.019Z,-1.00
2018-02-18T17:49:11.642Z,-1.10
2018-02-18T17:51:39.992Z,-1.20
2018-02-18T17:54:07.587Z,-1.20
2018-02-18T17:56:36.116Z,-1.30
2018-02-18T17:59:03.695Z,-1.30
2018-02-18T18:01:31.274Z,-1.40
2018-02-18T18:03:58.864Z,-1.40
2018-02-18T18:06:27.211Z,-1.40
2018-02-18T18:08:54.993Z,-1.50
2018-02-18T18:11:22.614Z,-1.50
2018-02-18T18:13:50.203Z,-1.50
2018-02-18T18:16:17.787Z,-1.50
2018-02-18T18:18:45.371Z,-1.60
2018-02-18T18:21:13.763Z,-1.70
2018-02-18T18:23:41.463Z,-1.70
2018-02-18T18:26:09.042Z,-1.70
2018-02-18T18:28:36.622Z,-1.80
2018-02-18T18:31:04.203Z,-1.80
2018-02-18T18:33:32.594Z,-1.90
2018-02-18T18:36:00.955Z,-2.00
2018-02-18T18:38:28.580Z,-2.00
2018-02-18T18:40:56.159Z,-2.00
2018-02-18T18:43:23.786Z,-2.10
2018-02-18T18:45:51.379Z,-2.00
2018-02-18T18:48:18.963Z,-2.10
2018-02-18T18:50:46.600Z,-2.10
2018-02-18T18:53:14.183Z,-2.10
2018-02-18T18:55:41.786Z,-2.20
2018-02-18T18:58:09.424Z,-2.20
2018-02-18T19:00:37.016Z,-2.20
2018-02-18T19:03:04.607Z,-2.30
2018-02-18T19:05:32.239Z,-2.20
2018-02-18T19:07:59.831Z,-2.30
2018-02-18T19:10:28.193Z,-2.40
2018-02-18T19:12:55.785Z,-2.40
2018-02-18T19:15:23.402Z,-2.40
2018-02-18T19:17:50.992Z,-2.50
2018-02-18T19:20:19.387Z,-2.50
2018-02-18T19:22:47.734Z,-2.50
2018-02-18T19:25:15.377Z,-2.50
2018-02-18T19:27:42.959Z,-2.60
2018-02-18T19:30:10.543Z,-2.60
2018-02-18T19:32:38.123Z,-2.70
2018-02-18T19:35:06.472Z,-2.80
2018-02-18T19:37:34.828Z,-2.80
2018-02-18T19:40:02.422Z,-2.80
2018-02-18T19:42:30.023Z,-2.90
2018-02-18T19:44:58.384Z,-2.90
2018-02-18T19:47:25.974Z,-3.00
2018-02-18T19:49:54.323Z,-3.10
2018-02-18T19:52:21.954Z,-3.10
2018-02-18T19:54:49.539Z,-3.10
2018-02-18T19:57:17.135Z,-3.10
2018-02-18T19:59:44.724Z,-3.10
2018-02-18T20:02:12.299Z,-3.20
2018-02-18T20:04:39.883Z,-3.20
2018-02-18T20:07:07.471Z,-3.20
2018-02-18T20:09:38.675Z,-3.20
2018-02-18T20:12:06.359Z,-3.20
2018-02-18T20:14:33.971Z,-3.10
2018-02-18T20:17:01.561Z,-3.10
2018-02-18T20:19:29.151Z,-3.10
2018-02-18T20:21:56.770Z,-3.00
2018-02-18T20:24:24.359Z,-3.00
2018-02-18T20:26:51.971Z,-2.90
2018-02-18T20:29:19.550Z,-2.90
2018-02-18T20:31:47.138Z,-2.90
2018-02-18T20:34:15.559Z,-2.80
2018-02-18T20:36:43.191Z,-2.80
2018-02-18T20:39:11.547Z,-2.70
2018-02-18T20:41:39.136Z,-2.70
2018-02-18T20:44:07.486Z,-2.70
2018-02-18T20:46:35.119Z,-2.70
2018-02-18T20:49:02.750Z,-2.60
2018-02-18T20:51:30.339Z,-2.60
2018-02-18T20:53:57.942Z,-2.60
2018-02-18T20:56:25.531Z,-2.60
2018-02-18T20:58:53.203Z,-2.60
2018-02-18T21:01:21.550Z,-2.60
2018-02-18T21:03:49.135Z,-2.60
2018-02-18T21:06:16.718Z,-2.60
2018-02-18T21:08:45.131Z,-2.50
2018-02-18T21:11:12.719Z,-2.60
2018-02-18T21:13:40.337Z,-2.50
2018-02-18T21:16:08.691Z,-2.50
2018-02-18T21:18:36.274Z,-2.50
2018-02-18T21:21:04.618Z,-2.50
2018-02-18T21:23:32.202Z,-2.50
2018-02-18T21:25:59.793Z,-2.40
2018-02-18T21:28:28.143Z,-2.50
2018-02-18T21:30:55.787Z,-2.50
2018-02-18T21:33:23.378Z,-2.40
2018-02-18T21:35:50.962Z,-2.40
2018-02-18T21:38:18.611Z,-2.40
2018-02-18T21:40:46.199Z,-2.40
2018-02-18T21:43:14.550Z,-2.30
2018-02-18T21:45:42.135Z,-2.30
2018-02-18T21:48:10.516Z,-2.30
2018-02-18T21:50:38.105Z,-2.30
2018-02-18T21:53:05.697Z,-2.30
2018-02-18T21:55:33.299Z,-2.20
2018-02-18T21:58:00.888Z,-2.30
2018-02-18T22:00:29.267Z,-2.20
2018-02-18T22:02:56.854Z,-2.30
2018-02-18T22:05:24.443Z,-2.20
2018-02-18T22:07:52.033Z,-2.20
2018-02-18T22:10:19.623Z,-2.20
2018-02-18T22:12:47.207Z,-2.20
2018-02-18T22:15:15.563Z,-2.10
2018-02-18T22:17:43.167Z,-2.10
2018-02-18T22:20:10.761Z,-2.10
2018-02-18T22:22:39.114Z,-2.10
2018-02-18T22:25:06.704Z,-2.10
2018-02-18T22:27:34.294Z,-2.10
2018-02-18T22:30:01.887Z,-2.10
2018-02-18T22:32:31.114Z,-2.10
2018-02-18T22:34:58.702Z,-2.10
2018-02-18T22:37:26.282Z,-2.10
2018-02-18T22:39:53.863Z,-2.00
2018-02-18T22:42:21.450Z,-2.00
2018-02-18T22:44:49.803Z,-2.00
2018-02-18T22:47:17.392Z,-2.00
2018-02-18T22:49:45.743Z,-2.00
2018-02-18T22:52:13.338Z,-2.00
2018-02-18T22:54:41.686Z,-2.00
2018-02-18T22:57:09.270Z,-2.00
2018-02-18T22:59:36.854Z,-1.90
2018-02-18T23:02:05.207Z,-1.90
2018-02-18T23:04:32.799Z,-1.90
2018-02-18T23:07:06.819Z,-1.80
2018-02-18T23:09:35.354Z,-1.90
2018-02-18T23:12:03.703Z,-1.80
2018-02-18T23:14:31.331Z,-1.90
2018-02-18T23:16:58.915Z,-1.80
2018-02-18T23:19:27.268Z,-1.70
2018-02-18T23:21:55.647Z,-1.80
2018-02-18T23:24:23.235Z,-1.80
2018-02-18T23:26:50.826Z,-1.90
2018-02-18T23:29:18.463Z,-2.00
2018-02-18T23:31:46.815Z,-2.20
2018-02-18T23:34:14.400Z,-2.20
2018-02-18T23:36:41.986Z,-2.20
2018-02-18T23:39:09.573Z,-2.30
2018-02-18T23:41:37.162Z,-2.40
2018-02-18T23:44:04.754Z,-2.40
2018-02-18T23:46:32.340Z,-2.50
2018-02-18T23:49:00.727Z,-2.60
2018-02-18T23:51:29.078Z,-2.60
2018-02-18T23:53:56.662Z,-2.60
2018-02-18T23:56:25.035Z,-2.70
2018-02-18T23:58:52.622Z,-2.70
